sensor_id;sensor_type;location;lat;lon;timestamp;temperature;humidity
78514;SHT31;67814;51.976;5.810;2023-03-19T00:01:53;14.3;65.9
78514;SHT31;67814;51.976;5.810;2023-03-19T00:04:23;14.2;66.1
78514;SHT31;67814;51.976;5.810;2023-03-19T00:06:53;14.1;66.8
78514;SHT31;67814;51.976;5.810;2023-03-19T00:09:23;14.1;66.8
78514;SHT31;67814;51.976;5.810;2023-03-19T00:11:55;14.0;67.7
78514;SHT31;67814;51.976;5.810;2023-03-19T00:14:25;13.9;67.8
78514;SHT31;67814;51.976;5.810;2023-03-19T00:16:55;13.9;67.9
78514;SHT31;67814;51.976;5.810;2023-03-19T00:19:24;13.9;68.7
78514;SHT31;67814;51.976;5.810;2023-03-19T00:21:54;13.8;68.7
78514;SHT31;67814;51.976;5.810;2023-03-19T00:24:25;13.8;68.9
78514;SHT31;67814;51.976;5.810;2023-03-19T00:26:55;13.8;68.9
78514;SHT31;67814;51.976;5.810;2023-03-19T00:29:27;13.8;69.1
78514;SHT31;67814;51.976;5.810;2023-03-19T00:31:57;13.8;69.0
78514;SHT31;67814;51.976;5.810;2023-03-19T00:34:27;13.9;69.0
78514;SHT31;67814;51.976;5.810;2023-03-19T00:36:59;13.9;68.7
78514;SHT31;67814;51.976;5.810;2023-03-19T00:39:29;13.9;68.7
78514;SHT31;67814;51.976;5.810;2023-03-19T00:41:59;13.9;68.8
78514;SHT31;67814;51.976;5.810;2023-03-19T00:44:29;14.0;67.9
78514;SHT31;67814;51.976;5.810;2023-03-19T00:46:58;14.0;68.0
78514;SHT31;67814;51.976;5.810;2023-03-19T00:49:28;14.0;67.9
78514;SHT31;67814;51.976;5.810;2023-03-19T00:51:57;14.0;67.8
78514;SHT31;67814;51.976;5.810;2023-03-19T00:54:27;14.0;67.2
78514;SHT31;67814;51.976;5.810;2023-03-19T00:56:58;14.0;67.4
78514;SHT31;67814;51.976;5.810;2023-03-19T00:59:28;14.0;67.4
78514;SHT31;67814;51.976;5.810;2023-03-19T01:01:58;14.1;67.3
78514;SHT31;67814;51.976;5.810;2023-03-19T01:04:28;14.1;66.9
78514;SHT31;67814;51.976;5.810;2023-03-19T01:06:57;14.1;67.2
78514;SHT31;67814;51.976;5.810;2023-03-19T01:09:27;14.1;67.3
78514;SHT31;67814;51.976;5.810;2023-03-19T01:11:57;14.1;66.7
78514;SHT31;67814;51.976;5.810;2023-03-19T01:14:31;14.1;67.1
78514;SHT31;67814;51.976;5.810;2023-03-19T01:17:03;14.1;66.9
78514;SHT31;67814;51.976;5.810;2023-03-19T01:19:33;14.1;66.7
78514;SHT31;67814;51.976;5.810;2023-03-19T01:22:03;14.1;66.6
78514;SHT31;67814;51.976;5.810;2023-03-19T01:24:32;14.1;66.8
78514;SHT31;67814;51.976;5.810;2023-03-19T01:27:02;14.1;66.7
78514;SHT31;67814;51.976;5.810;2023-03-19T01:29:32;14.1;66.4
78514;SHT31;67814;51.976;5.810;2023-03-19T01:32:04;14.0;66.3
78514;SHT31;67814;51.976;5.810;2023-03-19T01:34:34;14.0;66.4
78514;SHT31;67814;51.976;5.810;2023-03-19T01:37:04;14.0;66.6
78514;SHT31;67814;51.976;5.810;2023-03-19T01:39:34;14.0;66.6
78514;SHT31;67814;51.976;5.810;2023-03-19T01:42:03;13.9;66.8
78514;SHT31;67814;51.976;5.810;2023-03-19T01:44:35;13.9;66.8
78514;SHT31;67814;51.976;5.810;2023-03-19T01:47:11;13.9;66.6
78514;SHT31;67814;51.976;5.810;2023-03-19T01:49:43;13.8;66.6
78514;SHT31;67814;51.976;5.810;2023-03-19T01:52:14;13.8;66.7
78514;SHT31;67814;51.976;5.810;2023-03-19T01:54:47;13.8;66.9
78514;SHT31;67814;51.976;5.810;2023-03-19T01:57:18;13.7;67.1
78514;SHT31;67814;51.976;5.810;2023-03-19T01:59:52;13.7;67.4
78514;SHT31;67814;51.976;5.810;2023-03-19T02:02:26;13.6;67.3
78514;SHT31;67814;51.976;5.810;2023-03-19T02:05:02;13.6;67.5
78514;SHT31;67814;51.976;5.810;2023-03-19T02:07:35;13.5;67.7
78514;SHT31;67814;51.976;5.810;2023-03-19T02:10:10;13.5;68.1
78514;SHT31;67814;51.976;5.810;2023-03-19T02:12:40;13.4;68.3
78514;SHT31;67814;51.976;5.810;2023-03-19T02:15:10;13.4;68.6
78514;SHT31;67814;51.976;5.810;2023-03-19T02:17:41;13.4;68.8
78514;SHT31;67814;51.976;5.810;2023-03-19T02:20:17;13.4;69.1
78514;SHT31;67814;51.976;5.810;2023-03-19T02:22:59;13.4;69.2
78514;SHT31;67814;51.976;5.810;2023-03-19T02:25:36;13.3;69.5
78514;SHT31;67814;51.976;5.810;2023-03-19T02:28:08;13.3;69.2
78514;SHT31;67814;51.976;5.810;2023-03-19T02:30:38;13.3;69.2
78514;SHT31;67814;51.976;5.810;2023-03-19T02:33:08;13.3;69.4
78514;SHT31;67814;51.976;5.810;2023-03-19T02:35:41;13.3;69.7
78514;SHT31;67814;51.976;5.810;2023-03-19T02:38:13;13.3;69.8
78514;SHT31;67814;51.976;5.810;2023-03-19T02:40:49;13.4;69.6
78514;SHT31;67814;51.976;5.810;2023-03-19T02:43:22;13.4;69.5
78514;SHT31;67814;51.976;5.810;2023-03-19T02:45:52;13.4;69.6
78514;SHT31;67814;51.976;5.810;2023-03-19T02:48:23;13.4;69.3
78514;SHT31;67814;51.976;5.810;2023-03-19T02:50:53;13.4;69.2
78514;SHT31;67814;51.976;5.810;2023-03-19T02:53:23;13.5;68.8
78514;SHT31;67814;51.976;5.810;2023-03-19T02:55:53;13.5;68.8
78514;SHT31;67814;51.976;5.810;2023-03-19T02:58:23;13.5;68.7
78514;SHT31;67814;51.976;5.810;2023-03-19T03:00:52;13.5;68.7
78514;SHT31;67814;51.976;5.810;2023-03-19T03:03:22;13.5;68.9
78514;SHT31;67814;51.976;5.810;2023-03-19T03:05:52;13.5;68.9
78514;SHT31;67814;51.976;5.810;2023-03-19T03:08:21;13.5;68.9
78514;SHT31;67814;51.976;5.810;2023-03-19T03:10:51;13.5;69.1
78514;SHT31;67814;51.976;5.810;2023-03-19T03:13:20;13.5;69.2
78514;SHT31;67814;51.976;5.810;2023-03-19T03:15:50;13.5;69.2
78514;SHT31;67814;51.976;5.810;2023-03-19T03:18:20;13.5;69.2
78514;SHT31;67814;51.976;5.810;2023-03-19T03:20:49;13.5;69.4
78514;SHT31;67814;51.976;5.810;2023-03-19T03:23:20;13.5;69.3
78514;SHT31;67814;51.976;5.810;2023-03-19T03:25:51;13.5;69.4
78514;SHT31;67814;51.976;5.810;2023-03-19T03:28:20;13.6;69.2
78514;SHT31;67814;51.976;5.810;2023-03-19T03:30:59;13.6;69.3
78514;SHT31;67814;51.976;5.810;2023-03-19T03:33:30;13.6;69.2
78514;SHT31;67814;51.976;5.810;2023-03-19T03:35:59;13.6;69.1
78514;SHT31;67814;51.976;5.810;2023-03-19T03:38:29;13.6;69.1
78514;SHT31;67814;51.976;5.810;2023-03-19T03:40:59;13.6;69.1
78514;SHT31;67814;51.976;5.810;2023-03-19T03:43:29;13.6;69.2
78514;SHT31;67814;51.976;5.810;2023-03-19T03:45:59;13.6;69.1
78514;SHT31;67814;51.976;5.810;2023-03-19T03:48:28;13.6;69.1
78514;SHT31;67814;51.976;5.810;2023-03-19T03:50:58;13.6;69.2
78514;SHT31;67814;51.976;5.810;2023-03-19T03:53:28;13.6;69.1
78514;SHT31;67814;51.976;5.810;2023-03-19T03:55:57;13.6;69.1
78514;SHT31;67814;51.976;5.810;2023-03-19T03:58:27;13.6;68.9
78514;SHT31;67814;51.976;5.810;2023-03-19T04:00:58;13.6;69.0
78514;SHT31;67814;51.976;5.810;2023-03-19T04:03:30;13.6;68.9
78514;SHT31;67814;51.976;5.810;2023-03-19T04:05:59;13.6;68.9
78514;SHT31;67814;51.976;5.810;2023-03-19T04:08:29;13.6;69.2
78514;SHT31;67814;51.976;5.810;2023-03-19T04:10:58;13.5;69.1
78514;SHT31;67814;51.976;5.810;2023-03-19T04:13:28;13.5;69.3
78514;SHT31;67814;51.976;5.810;2023-03-19T04:16:02;13.5;69.4
78514;SHT31;67814;51.976;5.810;2023-03-19T04:18:34;13.5;69.5
78514;SHT31;67814;51.976;5.810;2023-03-19T04:21:05;13.5;69.7
78514;SHT31;67814;51.976;5.810;2023-03-19T04:23:35;13.5;69.7
78514;SHT31;67814;51.976;5.810;2023-03-19T04:26:05;13.5;69.7
78514;SHT31;67814;51.976;5.810;2023-03-19T04:28:35;13.5;69.6
78514;SHT31;67814;51.976;5.810;2023-03-19T04:31:06;13.5;69.6
78514;SHT31;67814;51.976;5.810;2023-03-19T04:33:37;13.5;69.7
78514;SHT31;67814;51.976;5.810;2023-03-19T04:36:07;13.4;69.5
78514;SHT31;67814;51.976;5.810;2023-03-19T04:38:37;13.4;69.6
78514;SHT31;67814;51.976;5.810;2023-03-19T04:41:06;13.4;69.9
78514;SHT31;67814;51.976;5.810;2023-03-19T04:43:37;13.4;69.9
78514;SHT31;67814;51.976;5.810;2023-03-19T04:46:07;13.4;70.0
78514;SHT31;67814;51.976;5.810;2023-03-19T04:48:36;13.4;70.2
78514;SHT31;67814;51.976;5.810;2023-03-19T04:51:06;13.4;70.3
78514;SHT31;67814;51.976;5.810;2023-03-19T04:53:37;13.4;70.2
78514;SHT31;67814;51.976;5.810;2023-03-19T04:56:07;13.4;70.2
78514;SHT31;67814;51.976;5.810;2023-03-19T04:58:37;13.4;70.1
78514;SHT31;67814;51.976;5.810;2023-03-19T05:01:07;13.4;70.0
78514;SHT31;67814;51.976;5.810;2023-03-19T05:03:38;13.4;70.1
78514;SHT31;67814;51.976;5.810;2023-03-19T05:06:08;13.3;70.2
78514;SHT31;67814;51.976;5.810;2023-03-19T05:08:38;13.3;70.3
78514;SHT31;67814;51.976;5.810;2023-03-19T05:11:09;13.3;70.3
78514;SHT31;67814;51.976;5.810;2023-03-19T05:13:39;13.3;70.3
78514;SHT31;67814;51.976;5.810;2023-03-19T05:16:09;13.3;70.5
78514;SHT31;67814;51.976;5.810;2023-03-19T05:18:39;13.3;70.7
78514;SHT31;67814;51.976;5.810;2023-03-19T05:21:11;13.3;70.6
78514;SHT31;67814;51.976;5.810;2023-03-19T05:23:42;13.3;70.4
78514;SHT31;67814;51.976;5.810;2023-03-19T05:26:14;13.3;70.3
78514;SHT31;67814;51.976;5.810;2023-03-19T05:28:44;13.3;70.3
78514;SHT31;67814;51.976;5.810;2023-03-19T05:31:14;13.4;70.2
78514;SHT31;67814;51.976;5.810;2023-03-19T05:33:43;13.4;70.1
78514;SHT31;67814;51.976;5.810;2023-03-19T05:36:15;13.4;70.2
78514;SHT31;67814;51.976;5.810;2023-03-19T05:38:45;13.4;70.1
78514;SHT31;67814;51.976;5.810;2023-03-19T05:41:15;13.4;70.0
78514;SHT31;67814;51.976;5.810;2023-03-19T05:43:44;13.4;70.1
78514;SHT31;67814;51.976;5.810;2023-03-19T05:46:14;13.4;70.0
78514;SHT31;67814;51.976;5.810;2023-03-19T05:48:44;13.4;70.1
78514;SHT31;67814;51.976;5.810;2023-03-19T05:51:13;13.4;70.2
78514;SHT31;67814;51.976;5.810;2023-03-19T05:53:43;13.4;70.1
78514;SHT31;67814;51.976;5.810;2023-03-19T05:56:13;13.4;70.1
78514;SHT31;67814;51.976;5.810;2023-03-19T05:58:43;13.4;70.1
78514;SHT31;67814;51.976;5.810;2023-03-19T06:01:12;13.4;70.1
78514;SHT31;67814;51.976;5.810;2023-03-19T06:03:42;13.4;70.1
78514;SHT31;67814;51.976;5.810;2023-03-19T06:06:14;13.4;70.0
78514;SHT31;67814;51.976;5.810;2023-03-19T06:08:44;13.4;70.0
78514;SHT31;67814;51.976;5.810;2023-03-19T06:11:14;13.4;70.2
78514;SHT31;67814;51.976;5.810;2023-03-19T06:13:44;13.4;70.2
78514;SHT31;67814;51.976;5.810;2023-03-19T06:16:13;13.4;70.3
78514;SHT31;67814;51.976;5.810;2023-03-19T06:18:43;13.4;70.2
78514;SHT31;67814;51.976;5.810;2023-03-19T06:21:14;13.4;70.4
78514;SHT31;67814;51.976;5.810;2023-03-19T06:23:43;13.4;70.3
78514;SHT31;67814;51.976;5.810;2023-03-19T06:26:13;13.4;70.4
78514;SHT31;67814;51.976;5.810;2023-03-19T06:28:43;13.4;70.2
78514;SHT31;67814;51.976;5.810;2023-03-19T06:31:13;13.4;70.5
78514;SHT31;67814;51.976;5.810;2023-03-19T06:33:43;13.4;70.2
78514;SHT31;67814;51.976;5.810;2023-03-19T06:36:13;13.4;70.4
78514;SHT31;67814;51.976;5.810;2023-03-19T06:38:42;13.4;70.2
78514;SHT31;67814;51.976;5.810;2023-03-19T06:41:12;13.4;70.0
78514;SHT31;67814;51.976;5.810;2023-03-19T06:43:42;13.5;70.2
78514;SHT31;67814;51.976;5.810;2023-03-19T06:46:12;13.5;70.0
78514;SHT31;67814;51.976;5.810;2023-03-19T06:48:44;13.5;70.0
78514;SHT31;67814;51.976;5.810;2023-03-19T06:51:14;13.5;70.2
78514;SHT31;67814;51.976;5.810;2023-03-19T06:53:43;13.6;69.9
78514;SHT31;67814;51.976;5.810;2023-03-19T06:56:13;13.6;69.8
78514;SHT31;67814;51.976;5.810;2023-03-19T06:58:43;13.6;69.9
78514;SHT31;67814;51.976;5.810;2023-03-19T07:01:12;13.6;69.7
78514;SHT31;67814;51.976;5.810;2023-03-19T07:03:42;13.6;69.6
78514;SHT31;67814;51.976;5.810;2023-03-19T07:06:12;13.7;69.9
78514;SHT31;67814;51.976;5.810;2023-03-19T07:08:42;13.7;69.7
78514;SHT31;67814;51.976;5.810;2023-03-19T07:11:15;13.7;69.6
78514;SHT31;67814;51.976;5.810;2023-03-19T07:13:45;13.7;69.9
78514;SHT31;67814;51.976;5.810;2023-03-19T07:16:16;13.8;69.0
78514;SHT31;67814;51.976;5.810;2023-03-19T07:18:46;13.8;68.7
78514;SHT31;67814;51.976;5.810;2023-03-19T07:21:16;13.8;68.8
78514;SHT31;67814;51.976;5.810;2023-03-19T07:23:46;13.9;68.4
78514;SHT31;67814;51.976;5.810;2023-03-19T07:26:17;13.9;68.8
78514;SHT31;67814;51.976;5.810;2023-03-19T07:28:47;13.9;68.8
78514;SHT31;67814;51.976;5.810;2023-03-19T07:31:17;13.9;69.0
78514;SHT31;67814;51.976;5.810;2023-03-19T07:33:47;14.0;68.4
78514;SHT31;67814;51.976;5.810;2023-03-19T07:36:17;14.0;68.1
78514;SHT31;67814;51.976;5.810;2023-03-19T07:38:47;14.0;67.9
78514;SHT31;67814;51.976;5.810;2023-03-19T07:41:17;14.0;67.8
78514;SHT31;67814;51.976;5.810;2023-03-19T07:43:48;14.0;68.5
78514;SHT31;67814;51.976;5.810;2023-03-19T07:46:18;14.0;68.6
78514;SHT31;67814;51.976;5.810;2023-03-19T07:48:49;14.0;68.4
78514;SHT31;67814;51.976;5.810;2023-03-19T07:51:19;14.0;68.3
78514;SHT31;67814;51.976;5.810;2023-03-19T07:53:49;14.0;67.6
78514;SHT31;67814;51.976;5.810;2023-03-19T07:56:19;14.0;67.3
78514;SHT31;67814;51.976;5.810;2023-03-19T07:58:48;14.0;67.5
78514;SHT31;67814;51.976;5.810;2023-03-19T08:01:19;14.0;67.0
78514;SHT31;67814;51.976;5.810;2023-03-19T08:03:48;14.0;66.3
78514;SHT31;67814;51.976;5.810;2023-03-19T08:06:18;14.0;66.1
78514;SHT31;67814;51.976;5.810;2023-03-19T08:08:48;14.0;66.2
78514;SHT31;67814;51.976;5.810;2023-03-19T08:11:18;14.0;66.8
78514;SHT31;67814;51.976;5.810;2023-03-19T08:13:47;14.0;67.1
78514;SHT31;67814;51.976;5.810;2023-03-19T08:16:17;14.0;67.4
78514;SHT31;67814;51.976;5.810;2023-03-19T08:18:47;14.0;67.7
78514;SHT31;67814;51.976;5.810;2023-03-19T08:21:18;14.0;67.3
78514;SHT31;67814;51.976;5.810;2023-03-19T08:23:47;14.0;66.9
78514;SHT31;67814;51.976;5.810;2023-03-19T08:26:17;14.0;66.9
78514;SHT31;67814;51.976;5.810;2023-03-19T08:28:49;14.1;66.6
78514;SHT31;67814;51.976;5.810;2023-03-19T08:31:20;14.1;66.6
78514;SHT31;67814;51.976;5.810;2023-03-19T08:33:50;14.1;67.0
78514;SHT31;67814;51.976;5.810;2023-03-19T08:36:20;14.2;66.6
78514;SHT31;67814;51.976;5.810;2023-03-19T08:38:49;14.2;66.1
78514;SHT31;67814;51.976;5.810;2023-03-19T08:41:22;14.3;65.8
78514;SHT31;67814;51.976;5.810;2023-03-19T08:43:52;14.3;65.1
78514;SHT31;67814;51.976;5.810;2023-03-19T08:46:22;14.4;64.8
78514;SHT31;67814;51.976;5.810;2023-03-19T08:48:53;14.4;64.7
78514;SHT31;67814;51.976;5.810;2023-03-19T08:51:23;14.4;64.0
78514;SHT31;67814;51.976;5.810;2023-03-19T08:53:54;14.5;65.8
78514;SHT31;67814;51.976;5.810;2023-03-19T08:56:24;14.5;65.4
78514;SHT31;67814;51.976;5.810;2023-03-19T08:58:55;14.6;64.9
78514;SHT31;67814;51.976;5.810;2023-03-19T09:01:24;14.7;64.2
78514;SHT31;67814;51.976;5.810;2023-03-19T09:03:56;14.8;63.3
78514;SHT31;67814;51.976;5.810;2023-03-19T09:06:25;14.9;63.7
78514;SHT31;67814;51.976;5.810;2023-03-19T09:08:55;15.0;63.5
78514;SHT31;67814;51.976;5.810;2023-03-19T09:11:25;15.1;63.8
78514;SHT31;67814;51.976;5.810;2023-03-19T09:13:54;15.1;62.7
78514;SHT31;67814;51.976;5.810;2023-03-19T09:16:24;15.2;62.2
78514;SHT31;67814;51.976;5.810;2023-03-19T09:18:56;15.3;61.8
78514;SHT31;67814;51.976;5.810;2023-03-19T09:21:25;15.3;61.1
78514;SHT31;67814;51.976;5.810;2023-03-19T09:23:55;15.3;61.9
78514;SHT31;67814;51.976;5.810;2023-03-19T09:26:26;15.4;61.8
78514;SHT31;67814;51.976;5.810;2023-03-19T09:28:57;15.4;59.6
78514;SHT31;67814;51.976;5.810;2023-03-19T09:31:27;15.5;60.7
78514;SHT31;67814;51.976;5.810;2023-03-19T09:33:57;15.5;60.4
78514;SHT31;67814;51.976;5.810;2023-03-19T09:36:26;15.5;60.1
78514;SHT31;67814;51.976;5.810;2023-03-19T09:38:56;15.5;60.9
78514;SHT31;67814;51.976;5.810;2023-03-19T09:41:33;15.6;60.8
78514;SHT31;67814;51.976;5.810;2023-03-19T09:44:12;15.6;59.5
78514;SHT31;67814;51.976;5.810;2023-03-19T09:46:47;15.6;59.8
78514;SHT31;67814;51.976;5.810;2023-03-19T09:49:23;15.6;60.3
78514;SHT31;67814;51.976;5.810;2023-03-19T09:51:58;15.6;59.8
78514;SHT31;67814;51.976;5.810;2023-03-19T09:54:34;15.7;60.0
78514;SHT31;67814;51.976;5.810;2023-03-19T09:57:07;15.7;60.5
78514;SHT31;67814;51.976;5.810;2023-03-19T09:59:38;15.7;59.7
78514;SHT31;67814;51.976;5.810;2023-03-19T10:02:25;15.7;60.4
78514;SHT31;67814;51.976;5.810;2023-03-19T10:05:03;15.8;61.0
78514;SHT31;67814;51.976;5.810;2023-03-19T10:07:49;15.8;60.2
78514;SHT31;67814;51.976;5.810;2023-03-19T10:10:35;15.9;61.0
78514;SHT31;67814;51.976;5.810;2023-03-19T10:13:17;15.9;60.6
78514;SHT31;67814;51.976;5.810;2023-03-19T10:15:51;16.0;59.2
78514;SHT31;67814;51.976;5.810;2023-03-19T10:18:26;16.1;57.7
78514;SHT31;67814;51.976;5.810;2023-03-19T10:21:02;16.1;58.4
78514;SHT31;67814;51.976;5.810;2023-03-19T10:23:37;16.2;58.7
78514;SHT31;67814;51.976;5.810;2023-03-19T10:26:12;16.2;58.8
78514;SHT31;67814;51.976;5.810;2023-03-19T10:28:44;16.3;58.9
78514;SHT31;67814;51.976;5.810;2023-03-19T10:31:26;16.4;58.4
78514;SHT31;67814;51.976;5.810;2023-03-19T10:34:13;16.4;58.8
78514;SHT31;67814;51.976;5.810;2023-03-19T10:36:45;16.5;57.5
78514;SHT31;67814;51.976;5.810;2023-03-19T10:39:17;16.5;57.4
78514;SHT31;67814;51.976;5.810;2023-03-19T10:41:59;16.6;57.5
78514;SHT31;67814;51.976;5.810;2023-03-19T10:44:35;16.6;57.1
78514;SHT31;67814;51.976;5.810;2023-03-19T10:47:13;16.6;57.2
78514;SHT31;67814;51.976;5.810;2023-03-19T10:49:44;16.6;56.9
78514;SHT31;67814;51.976;5.810;2023-03-19T10:52:21;16.6;56.8
78514;SHT31;67814;51.976;5.810;2023-03-19T10:55:03;16.6;57.9
78514;SHT31;67814;51.976;5.810;2023-03-19T10:57:35;16.6;57.0
78514;SHT31;67814;51.976;5.810;2023-03-19T11:00:17;16.6;57.3
78514;SHT31;67814;51.976;5.810;2023-03-19T11:02:51;16.6;57.3
78514;SHT31;67814;51.976;5.810;2023-03-19T11:05:26;16.6;57.1
78514;SHT31;67814;51.976;5.810;2023-03-19T11:07:58;16.6;57.6
78514;SHT31;67814;51.976;5.810;2023-03-19T11:10:30;16.6;57.7
78514;SHT31;67814;51.976;5.810;2023-03-19T11:13:04;16.6;57.7
78514;SHT31;67814;51.976;5.810;2023-03-19T11:15:36;16.5;57.7
78514;SHT31;67814;51.976;5.810;2023-03-19T11:18:17;16.5;58.2
78514;SHT31;67814;51.976;5.810;2023-03-19T11:20:57;16.5;57.0
78514;SHT31;67814;51.976;5.810;2023-03-19T11:23:30;16.5;58.1
78514;SHT31;67814;51.976;5.810;2023-03-19T11:26:00;16.5;57.5
78514;SHT31;67814;51.976;5.810;2023-03-19T11:28:30;16.5;58.0
78514;SHT31;67814;51.976;5.810;2023-03-19T11:31:10;16.5;58.0
78514;SHT31;67814;51.976;5.810;2023-03-19T11:33:55;16.5;57.9
78514;SHT31;67814;51.976;5.810;2023-03-19T11:36:29;16.5;58.7
78514;SHT31;67814;51.976;5.810;2023-03-19T11:39:19;16.5;59.2
78514;SHT31;67814;51.976;5.810;2023-03-19T11:42:01;16.6;59.0
78514;SHT31;67814;51.976;5.810;2023-03-19T11:44:42;16.6;59.1
78514;SHT31;67814;51.976;5.810;2023-03-19T11:47:18;16.7;59.0
78514;SHT31;67814;51.976;5.810;2023-03-19T11:50:05;16.8;58.2
78514;SHT31;67814;51.976;5.810;2023-03-19T11:52:52;16.8;58.1
78514;SHT31;67814;51.976;5.810;2023-03-19T11:55:30;16.8;57.2
78514;SHT31;67814;51.976;5.810;2023-03-19T11:58:17;16.8;56.6
78514;SHT31;67814;51.976;5.810;2023-03-19T12:00:52;16.8;56.6
78514;SHT31;67814;51.976;5.810;2023-03-19T12:03:48;16.8;56.8
78514;SHT31;67814;51.976;5.810;2023-03-19T12:06:34;16.7;57.3
78514;SHT31;67814;51.976;5.810;2023-03-19T12:09:13;16.6;57.2
78514;SHT31;67814;51.976;5.810;2023-03-19T12:11:52;16.5;58.3
78514;SHT31;67814;51.976;5.810;2023-03-19T12:14:33;16.5;57.8
78514;SHT31;67814;51.976;5.810;2023-03-19T12:17:19;16.4;58.4
78514;SHT31;67814;51.976;5.810;2023-03-19T12:20:13;16.4;59.5
78514;SHT31;67814;51.976;5.810;2023-03-19T12:23:02;16.5;58.3
78514;SHT31;67814;51.976;5.810;2023-03-19T12:25:43;16.5;58.3
78514;SHT31;67814;51.976;5.810;2023-03-19T12:28:23;16.5;58.2
78514;SHT31;67814;51.976;5.810;2023-03-19T12:31:16;16.6;56.9
78514;SHT31;67814;51.976;5.810;2023-03-19T12:33:58;16.5;56.5
78514;SHT31;67814;51.976;5.810;2023-03-19T12:36:36;16.4;56.7
78514;SHT31;67814;51.976;5.810;2023-03-19T12:39:12;16.2;57.3
78514;SHT31;67814;51.976;5.810;2023-03-19T12:41:45;16.0;58.0
78514;SHT31;67814;51.976;5.810;2023-03-19T12:44:21;15.9;57.6
78514;SHT31;67814;51.976;5.810;2023-03-19T12:46:56;15.9;58.6
78514;SHT31;67814;51.976;5.810;2023-03-19T12:49:34;15.9;58.9
78514;SHT31;67814;51.976;5.810;2023-03-19T12:52:14;15.8;59.1
78514;SHT31;67814;51.976;5.810;2023-03-19T12:54:53;15.8;59.4
78514;SHT31;67814;51.976;5.810;2023-03-19T12:57:33;15.8;59.7
78514;SHT31;67814;51.976;5.810;2023-03-19T13:00:11;15.9;59.4
78514;SHT31;67814;51.976;5.810;2023-03-19T13:02:54;15.9;57.8
78514;SHT31;67814;51.976;5.810;2023-03-19T13:05:31;16.0;56.6
78514;SHT31;67814;51.976;5.810;2023-03-19T13:08:11;15.9;57.6
78514;SHT31;67814;51.976;5.810;2023-03-19T13:10:43;15.9;58.4
78514;SHT31;67814;51.976;5.810;2023-03-19T13:13:33;16.0;58.2
78514;SHT31;67814;51.976;5.810;2023-03-19T13:16:10;16.1;57.6
78514;SHT31;67814;51.976;5.810;2023-03-19T13:18:53;16.1;57.4
78514;SHT31;67814;51.976;5.810;2023-03-19T13:21:28;16.1;57.8
78514;SHT31;67814;51.976;5.810;2023-03-19T13:24:05;16.2;58.2
78514;SHT31;67814;51.976;5.810;2023-03-19T13:26:38;16.3;58.0
78514;SHT31;67814;51.976;5.810;2023-03-19T13:29:17;16.4;57.2
78514;SHT31;67814;51.976;5.810;2023-03-19T13:31:49;16.4;57.0
78514;SHT31;67814;51.976;5.810;2023-03-19T13:34:24;16.5;56.9
78514;SHT31;67814;51.976;5.810;2023-03-19T13:37:03;16.6;56.7
78514;SHT31;67814;51.976;5.810;2023-03-19T13:39:38;16.6;56.8
78514;SHT31;67814;51.976;5.810;2023-03-19T13:42:37;16.7;56.2
78514;SHT31;67814;51.976;5.810;2023-03-19T13:45:30;16.7;55.6
78514;SHT31;67814;51.976;5.810;2023-03-19T13:48:23;16.8;54.7
78514;SHT31;67814;51.976;5.810;2023-03-19T13:51:00;16.7;55.9
78514;SHT31;67814;51.976;5.810;2023-03-19T13:53:36;16.7;55.1
78514;SHT31;67814;51.976;5.810;2023-03-19T13:56:08;16.7;55.9
78514;SHT31;67814;51.976;5.810;2023-03-19T13:58:47;16.7;56.0
78514;SHT31;67814;51.976;5.810;2023-03-19T14:01:37;16.8;55.7
78514;SHT31;67814;51.976;5.810;2023-03-19T14:04:19;16.8;55.9
78514;SHT31;67814;51.976;5.810;2023-03-19T14:06:54;16.8;55.9
78514;SHT31;67814;51.976;5.810;2023-03-19T14:09:41;16.9;55.4
78514;SHT31;67814;51.976;5.810;2023-03-19T14:12:22;16.9;55.4
78514;SHT31;67814;51.976;5.810;2023-03-19T14:14:56;17.0;54.4
78514;SHT31;67814;51.976;5.810;2023-03-19T14:17:31;17.0;54.4
78514;SHT31;67814;51.976;5.810;2023-03-19T14:20:21;16.9;54.3
78514;SHT31;67814;51.976;5.810;2023-03-19T14:22:54;16.9;55.2
78514;SHT31;67814;51.976;5.810;2023-03-19T14:25:26;16.8;55.1
78514;SHT31;67814;51.976;5.810;2023-03-19T14:27:59;16.8;55.0
78514;SHT31;67814;51.976;5.810;2023-03-19T14:30:33;16.8;55.1
78514;SHT31;67814;51.976;5.810;2023-03-19T14:33:14;16.8;55.0
78514;SHT31;67814;51.976;5.810;2023-03-19T14:35:48;16.7;55.4
78514;SHT31;67814;51.976;5.810;2023-03-19T14:38:27;16.7;55.1
78514;SHT31;67814;51.976;5.810;2023-03-19T14:41:02;16.7;54.5
78514;SHT31;67814;51.976;5.810;2023-03-19T14:43:48;16.7;54.8
78514;SHT31;67814;51.976;5.810;2023-03-19T14:46:27;16.7;54.8
78514;SHT31;67814;51.976;5.810;2023-03-19T14:49:33;16.7;55.5
78514;SHT31;67814;51.976;5.810;2023-03-19T14:52:11;16.7;55.0
78514;SHT31;67814;51.976;5.810;2023-03-19T14:54:47;16.7;55.0
78514;SHT31;67814;51.976;5.810;2023-03-19T14:57:20;16.6;54.7
78514;SHT31;67814;51.976;5.810;2023-03-19T14:59:52;16.6;55.0
78514;SHT31;67814;51.976;5.810;2023-03-19T15:02:31;16.5;55.6
78514;SHT31;67814;51.976;5.810;2023-03-19T15:05:03;16.4;55.4
78514;SHT31;67814;51.976;5.810;2023-03-19T15:07:37;16.4;55.3
78514;SHT31;67814;51.976;5.810;2023-03-19T15:10:15;16.4;55.3
78514;SHT31;67814;51.976;5.810;2023-03-19T15:13:42;16.4;55.2
78514;SHT31;67814;51.976;5.810;2023-03-19T15:16:30;16.3;55.9
78514;SHT31;67814;51.976;5.810;2023-03-19T15:19:02;16.2;55.5
78514;SHT31;67814;51.976;5.810;2023-03-19T15:21:33;16.2;56.2
78514;SHT31;67814;51.976;5.810;2023-03-19T15:24:05;16.2;55.9
78514;SHT31;67814;51.976;5.810;2023-03-19T15:26:40;16.2;56.3
78514;SHT31;67814;51.976;5.810;2023-03-19T15:29:10;16.2;56.5
78514;SHT31;67814;51.976;5.810;2023-03-19T15:31:45;16.2;56.8
78514;SHT31;67814;51.976;5.810;2023-03-19T15:34:20;16.2;57.0
78514;SHT31;67814;51.976;5.810;2023-03-19T15:36:53;16.2;57.2
78514;SHT31;67814;51.976;5.810;2023-03-19T15:39:26;16.3;57.3
78514;SHT31;67814;51.976;5.810;2023-03-19T15:41:57;16.4;56.5
78514;SHT31;67814;51.976;5.810;2023-03-19T15:44:31;16.4;54.9
78514;SHT31;67814;51.976;5.810;2023-03-19T15:47:07;16.5;55.3
78514;SHT31;67814;51.976;5.810;2023-03-19T15:49:41;16.5;55.3
78514;SHT31;67814;51.976;5.810;2023-03-19T15:52:16;16.6;54.9
78514;SHT31;67814;51.976;5.810;2023-03-19T15:54:47;16.6;55.0
78514;SHT31;67814;51.976;5.810;2023-03-19T15:57:17;16.6;54.9
78514;SHT31;67814;51.976;5.810;2023-03-19T15:59:51;16.7;54.4
78514;SHT31;67814;51.976;5.810;2023-03-19T16:02:25;16.7;54.2
78514;SHT31;67814;51.976;5.810;2023-03-19T16:04:56;16.8;52.8
78514;SHT31;67814;51.976;5.810;2023-03-19T16:07:34;16.7;52.9
78514;SHT31;67814;51.976;5.810;2023-03-19T16:10:38;16.7;52.7
78514;SHT31;67814;51.976;5.810;2023-03-19T16:13:22;16.7;52.9
78514;SHT31;67814;51.976;5.810;2023-03-19T16:15:59;16.7;52.2
78514;SHT31;67814;51.976;5.810;2023-03-19T16:18:42;16.6;52.2
78514;SHT31;67814;51.976;5.810;2023-03-19T16:21:16;16.6;52.7
78514;SHT31;67814;51.976;5.810;2023-03-19T16:23:51;16.5;53.0
78514;SHT31;67814;51.976;5.810;2023-03-19T16:26:25;16.5;52.0
78514;SHT31;67814;51.976;5.810;2023-03-19T16:29:02;16.5;51.9
78514;SHT31;67814;51.976;5.810;2023-03-19T16:31:41;16.5;52.5
78514;SHT31;67814;51.976;5.810;2023-03-19T16:34:33;16.4;52.4
78514;SHT31;67814;51.976;5.810;2023-03-19T16:37:25;16.4;52.5
78514;SHT31;67814;51.976;5.810;2023-03-19T16:39:57;16.4;52.3
78514;SHT31;67814;51.976;5.810;2023-03-19T16:42:36;16.4;52.4
78514;SHT31;67814;51.976;5.810;2023-03-19T16:45:21;16.4;52.9